»·PEaware :: N9273T KSBP-KCNO

N9273T :: KSBP-KCNO

FLIGHT INFORMATION

Flight Status: Arrived
Operator: Privately registered:
United States
More flights under this callsign
Pilot: Jim L. (28297)
Aircraft: CESSNA 210 CENTURION
(C210)
More flights by this aircraft type
Origin: KSBP San Luis Co Regl
United States
Destination: KCNO Chino
United States
More flights between these airports :: More routes between these airports
Route: +RZS V186 PDZ
File this flight plan on PilotEdge
Remarks: TEC route SBAP51
Altitude:
(Current/Filed)
7,000ft
Speed:
(Current/Filed)
140kts
Departed: 11-Aug-20 05:53 PM
Arrived: 11-Aug-20 07:14 PM
Distance/Time
Traveled:
166nm/1:20
Distance/Time
To Go:
Arrived

Flight Plot

Page will automatically refresh every two minutes.

Flight plan parsing failed; only flown route is shown


Map Options




Map Legend


Flown Route
Filed Route
Departure Airport
Arrival Airport
Navaid (VOR, NDB)
Fix

Horizontal Profiles

Position Reports

Time Latitude Longitude Heading Altitude Ground
Speed
11-Aug-20 17:33 35.240486 -120.643839 215 216ft 0kts
11-Aug-20 17:34 35.240486 -120.643839 215 216ft 0kts
11-Aug-20 17:35 35.240486 -120.643839 215 216ft 0kts
11-Aug-20 17:36 35.240486 -120.643839 215 216ft 0kts
11-Aug-20 17:37 35.240392 -120.643930 223 216ft 9kts
11-Aug-20 17:37 35.240369 -120.643957 224 216ft 0kts
11-Aug-20 17:39 35.240369 -120.643957 224 216ft 0kts
11-Aug-20 17:40 35.240369 -120.643957 224 216ft 0kts
11-Aug-20 17:40 35.240369 -120.643957 224 216ft 0kts
11-Aug-20 17:41 35.240369 -120.643957 224 216ft 0kts
11-Aug-20 17:43 35.240369 -120.643957 224 216ft 0kts
11-Aug-20 17:43 35.240369 -120.643957 224 216ft 0kts
11-Aug-20 17:44 35.240369 -120.643957 224 216ft 0kts
11-Aug-20 17:45 35.240369 -120.643957 224 216ft 0kts
11-Aug-20 17:46 35.240369 -120.643957 224 216ft 0kts
11-Aug-20 17:47 35.240369 -120.643957 224 216ft 0kts
11-Aug-20 17:48 35.240349 -120.644004 266 216ft 3kts
11-Aug-20 17:49 35.237808 -120.639941 122 216ft 23kts
11-Aug-20 17:50 35.234662 -120.634393 123 216ft 19kts
11-Aug-20 17:51 35.233284 -120.632376 176 216ft 0kts
11-Aug-20 17:52 35.237234 -120.640831 304 337ft 80kts
11-Aug-20 17:53 35.251772 -120.663758 303 1602ft 78kts
11-Aug-20 17:54 35.263573 -120.686354 304 2858ft 81kts
11-Aug-20 17:55 35.255341 -120.705330 169 4073ft 119kts
11-Aug-20 17:56 35.226490 -120.687898 161 5367ft 115kts
11-Aug-20 17:57 35.201314 -120.663076 130 6480ft 126kts
11-Aug-20 17:58 35.175225 -120.627958 133 6984ft 164kts
11-Aug-20 17:59 35.143262 -120.586374 133 6973ft 168kts
11-Aug-20 18:00 35.111026 -120.544436 133 6974ft 168kts
11-Aug-20 18:01 35.078829 -120.502576 133 6975ft 168kts
11-Aug-20 18:02 35.046881 -120.461017 133 7012ft 167kts
11-Aug-20 18:03 35.014704 -120.419308 133 7010ft 168kts
11-Aug-20 18:04 34.982355 -120.377419 133 7010ft 169kts
11-Aug-20 18:05 34.950039 -120.335531 134 7008ft 169kts
11-Aug-20 18:06 34.917606 -120.293675 134 7008ft 169kts
11-Aug-20 18:07 34.885377 -120.252072 134 7008ft 168kts
11-Aug-20 18:08 34.853048 -120.210279 134 6999ft 168kts
11-Aug-20 18:09 34.820965 -120.168852 134 6998ft 168kts
11-Aug-20 18:10 34.788645 -120.127185 134 6999ft 168kts
11-Aug-20 18:11 34.756537 -120.085965 135 7046ft 167kts
11-Aug-20 18:12 34.729201 -120.050868 135 7046ft 168kts
11-Aug-20 18:13 34.696814 -120.009501 135 7045ft 169kts
11-Aug-20 18:14 34.664517 -119.968091 135 7045ft 168kts
11-Aug-20 18:15 34.632237 -119.926828 135 7046ft 168kts
11-Aug-20 18:16 34.599906 -119.885473 135 7047ft 168kts
11-Aug-20 18:17 34.567583 -119.844239 135 7046ft 168kts
11-Aug-20 18:18 34.535173 -119.802931 135 7046ft 169kts
11-Aug-20 18:19 34.503918 -119.760053 125 7046ft 170kts
11-Aug-20 18:20 34.477892 -119.711999 124 7046ft 170kts
11-Aug-20 18:21 34.451828 -119.663859 124 7046ft 170kts
11-Aug-20 18:22 34.425707 -119.615719 124 7045ft 170kts
11-Aug-20 18:23 34.399649 -119.567746 124 7046ft 170kts
11-Aug-20 18:24 34.373483 -119.519813 124 7030ft 171kts
11-Aug-20 18:25 34.347224 -119.471661 125 7029ft 170kts
11-Aug-20 18:26 34.321164 -119.423792 121 7028ft 170kts
11-Aug-20 18:27 34.320086 -119.366902 82 7029ft 171kts
11-Aug-20 18:28 34.325009 -119.309234 83 7026ft 171kts
11-Aug-20 18:29 34.329502 -119.251740 83 7025ft 171kts
11-Aug-20 18:30 34.333803 -119.194266 84 7026ft 171kts
11-Aug-20 18:31 34.338148 -119.136815 83 7026ft 171kts
11-Aug-20 18:32 34.342406 -119.079093 84 7027ft 171kts
11-Aug-20 18:33 34.346691 -119.021722 84 7027ft 171kts
11-Aug-20 18:34 34.350939 -118.964182 84 7028ft 171kts
11-Aug-20 18:35 34.355110 -118.906469 84 7028ft 171kts
11-Aug-20 18:36 34.345917 -118.851504 112 7028ft 170kts
11-Aug-20 18:37 34.328598 -118.798068 113 7055ft 170kts
11-Aug-20 18:38 34.310559 -118.744760 113 7055ft 171kts
11-Aug-20 18:39 34.292354 -118.691312 114 7055ft 171kts
11-Aug-20 18:40 34.274132 -118.638005 114 7054ft 171kts
11-Aug-20 18:41 34.255785 -118.584580 114 7019ft 170kts
11-Aug-20 18:42 34.237606 -118.531712 114 7019ft 170kts
11-Aug-20 18:43 34.219507 -118.478619 112 7020ft 170kts
11-Aug-20 18:44 34.203460 -118.424821 111 7020ft 170kts
11-Aug-20 18:45 34.187192 -118.370883 111 7018ft 170kts
11-Aug-20 18:46 34.170885 -118.317093 112 7017ft 170kts
11-Aug-20 18:47 34.154532 -118.263454 112 7018ft 170kts
11-Aug-20 18:48 34.138170 -118.209886 112 7016ft 170kts
11-Aug-20 18:49 34.121671 -118.156205 112 7017ft 170kts
11-Aug-20 18:50 34.105301 -118.102758 112 7034ft 169kts
11-Aug-20 18:51 34.088862 -118.049327 112 7036ft 170kts
11-Aug-20 18:52 34.072430 -117.995622 112 7038ft 170kts
11-Aug-20 18:53 34.055821 -117.941781 112 6892ft 174kts
11-Aug-20 18:54 34.038759 -117.886563 112 6093ft 176kts
11-Aug-20 18:55 34.018701 -117.832579 123 5199ft 175kts
11-Aug-20 18:56 33.992759 -117.783188 125 4305ft 173kts
11-Aug-20 18:57 33.968969 -117.737660 124 4068ft 144kts
11-Aug-20 18:58 33.948627 -117.697759 120 4079ft 146kts
11-Aug-20 18:59 33.942435 -117.645059 92 4076ft 166kts
11-Aug-20 19:00 33.941001 -117.589067 93 4073ft 168kts
11-Aug-20 19:01 33.939357 -117.532475 92 4073ft 168kts
11-Aug-20 19:02 33.937789 -117.476020 92 4075ft 169kts
11-Aug-20 19:03 33.936258 -117.419255 92 4074ft 170kts
11-Aug-20 19:04 33.937437 -117.362708 55 4069ft 169kts
11-Aug-20 19:05 33.969529 -117.378976 292 3672ft 165kts
11-Aug-20 19:06 33.978869 -117.431740 261 3075ft 159kts
11-Aug-20 19:07 33.976983 -117.477944 267 3065ft 120kts
11-Aug-20 19:08 33.976735 -117.517365 266 2538ft 105kts
11-Aug-20 19:09 33.976458 -117.546709 268 2036ft 73kts
11-Aug-20 19:10 33.976286 -117.572893 269 1640ft 84kts
11-Aug-20 19:11 33.976074 -117.597128 268 1237ft 66kts
11-Aug-20 19:12 33.975952 -117.619822 268 884ft 65kts
11-Aug-20 19:13 33.975722 -117.639206 271 653ft 34kts
11-Aug-20 19:14 33.976386 -117.643904 83 653ft 0kts

Navigation Log

Ident Type
Flight plan parsing failed, navigation log unavailable